sensor_id;sensor_type;location;lat;lon;timestamp;temperature;humidity
48898;DHT22;34713;50.038;20.000;2022-11-15T00:00:50;8.37;74.37
48898;DHT22;34713;50.038;20.000;2022-11-15T00:03:17;8.37;74.34
48898;DHT22;34713;50.038;20.000;2022-11-15T00:05:44;8.35;74.31
48898;DHT22;34713;50.038;20.000;2022-11-15T00:08:11;8.35;74.29
48898;DHT22;34713;50.038;20.000;2022-11-15T00:10:37;8.35;74.20
48898;DHT22;34713;50.038;20.000;2022-11-15T00:13:08;8.35;74.23
48898;DHT22;34713;50.038;20.000;2022-11-15T00:15:36;8.34;74.33
48898;DHT22;34713;50.038;20.000;2022-11-15T00:18:04;8.32;74.38
48898;DHT22;34713;50.038;20.000;2022-11-15T00:20:33;8.31;74.42
48898;DHT22;34713;50.038;20.000;2022-11-15T00:22:59;8.27;74.48
48898;DHT22;34713;50.038;20.000;2022-11-15T00:25:25;8.31;74.53
48898;DHT22;34713;50.038;20.000;2022-11-15T00:27:55;8.31;74.55
48898;DHT22;34713;50.038;20.000;2022-11-15T00:30:22;8.30;74.50
48898;DHT22;34713;50.038;20.000;2022-11-15T00:32:48;8.35;74.50
48898;DHT22;34713;50.038;20.000;2022-11-15T00:35:14;8.34;74.46
48898;DHT22;34713;50.038;20.000;2022-11-15T00:37:40;8.35;74.44
48898;DHT22;34713;50.038;20.000;2022-11-15T00:40:07;8.37;74.44
48898;DHT22;34713;50.038;20.000;2022-11-15T00:42:33;8.40;74.44
48898;DHT22;34713;50.038;20.000;2022-11-15T00:44:59;8.40;74.40
48898;DHT22;34713;50.038;20.000;2022-11-15T00:47:25;8.41;74.39
48898;DHT22;34713;50.038;20.000;2022-11-15T00:49:50;8.42;74.34
48898;DHT22;34713;50.038;20.000;2022-11-15T00:52:16;8.48;74.33
48898;DHT22;34713;50.038;20.000;2022-11-15T00:54:42;8.48;74.27
48898;DHT22;34713;50.038;20.000;2022-11-15T00:57:07;8.49;74.25
48898;DHT22;34713;50.038;20.000;2022-11-15T00:59:33;8.52;74.15
48898;DHT22;34713;50.038;20.000;2022-11-15T01:01:59;8.47;74.09
48898;DHT22;34713;50.038;20.000;2022-11-15T01:04:25;8.45;74.15
48898;DHT22;34713;50.038;20.000;2022-11-15T01:06:51;8.42;74.16
48898;DHT22;34713;50.038;20.000;2022-11-15T01:09:17;8.38;74.19
48898;DHT22;34713;50.038;20.000;2022-11-15T01:11:43;8.38;74.27
48898;DHT22;34713;50.038;20.000;2022-11-15T01:14:08;8.35;74.30
48898;DHT22;34713;50.038;20.000;2022-11-15T01:16:34;8.37;74.27
48898;DHT22;34713;50.038;20.000;2022-11-15T01:19:00;8.37;74.27
48898;DHT22;34713;50.038;20.000;2022-11-15T01:21:26;8.32;74.30
48898;DHT22;34713;50.038;20.000;2022-11-15T01:23:56;8.32;74.30
48898;DHT22;34713;50.038;20.000;2022-11-15T01:26:24;8.32;74.30
48898;DHT22;34713;50.038;20.000;2022-11-15T01:28:50;8.28;74.28
48898;DHT22;34713;50.038;20.000;2022-11-15T01:31:19;8.25;74.28
48898;DHT22;34713;50.038;20.000;2022-11-15T01:33:46;8.25;74.27
48898;DHT22;34713;50.038;20.000;2022-11-15T01:36:17;8.23;74.21
48898;DHT22;34713;50.038;20.000;2022-11-15T01:38:43;8.21;74.18
48898;DHT22;34713;50.038;20.000;2022-11-15T01:41:16;8.18;74.08
48898;DHT22;34713;50.038;20.000;2022-11-15T01:43:43;8.10;74.06
48898;DHT22;34713;50.038;20.000;2022-11-15T01:46:29;8.07;74.03
48898;DHT22;34713;50.038;20.000;2022-11-15T01:48:59;8.02;74.05
48898;DHT22;34713;50.038;20.000;2022-11-15T01:51:28;7.97;74.10
48898;DHT22;34713;50.038;20.000;2022-11-15T01:53:58;7.97;74.15
48898;DHT22;34713;50.038;20.000;2022-11-15T01:56:27;7.97;74.10
48898;DHT22;34713;50.038;20.000;2022-11-15T01:58:57;8.02;74.12
48898;DHT22;34713;50.038;20.000;2022-11-15T02:01:25;8.06;74.13
48898;DHT22;34713;50.038;20.000;2022-11-15T02:04:04;8.10;74.03
48898;DHT22;34713;50.038;20.000;2022-11-15T02:06:29;8.17;73.93
48898;DHT22;34713;50.038;20.000;2022-11-15T02:08:56;8.21;73.82
48898;DHT22;34713;50.038;20.000;2022-11-15T02:11:22;8.27;73.68
48898;DHT22;34713;50.038;20.000;2022-11-15T02:13:48;8.32;73.64
48898;DHT22;34713;50.038;20.000;2022-11-15T02:16:51;8.35;73.58
48898;DHT22;34713;50.038;20.000;2022-11-15T02:39:23;8.49;72.84
48898;DHT22;34713;50.038;20.000;2022-11-15T02:42:00;8.51;72.72
48898;DHT22;34713;50.038;20.000;2022-11-15T02:44:36;8.51;72.69
48898;DHT22;34713;50.038;20.000;2022-11-15T02:47:13;8.52;72.66
48898;DHT22;34713;50.038;20.000;2022-11-15T02:49:49;8.51;72.65
48898;DHT22;34713;50.038;20.000;2022-11-15T02:52:22;8.49;72.66
48898;DHT22;34713;50.038;20.000;2022-11-15T02:54:55;8.51;72.62
48898;DHT22;34713;50.038;20.000;2022-11-15T02:57:44;8.51;72.59
48898;DHT22;34713;50.038;20.000;2022-11-15T03:00:11;8.47;72.56
48898;DHT22;34713;50.038;20.000;2022-11-15T03:08:54;8.48;72.43
48898;DHT22;34713;50.038;20.000;2022-11-15T03:11:20;8.49;72.32
48898;DHT22;34713;50.038;20.000;2022-11-15T03:13:58;8.48;72.24
48898;DHT22;34713;50.038;20.000;2022-11-15T03:16:37;8.48;72.17
48898;DHT22;34713;50.038;20.000;2022-11-15T03:19:23;8.45;72.11
48898;DHT22;34713;50.038;20.000;2022-11-15T03:21:47;8.44;72.03
48898;DHT22;34713;50.038;20.000;2022-11-15T03:24:16;8.44;72.07
48898;DHT22;34713;50.038;20.000;2022-11-15T03:26:45;8.42;72.01
48898;DHT22;34713;50.038;20.000;2022-11-15T03:29:17;8.44;72.03
48898;DHT22;34713;50.038;20.000;2022-11-15T03:31:46;8.44;71.97
48898;DHT22;34713;50.038;20.000;2022-11-15T03:34:37;8.48;71.99
48898;DHT22;34713;50.038;20.000;2022-11-15T03:37:02;8.45;71.95
48898;DHT22;34713;50.038;20.000;2022-11-15T03:39:29;8.40;71.89
48898;DHT22;34713;50.038;20.000;2022-11-15T03:42:20;8.41;71.95
48898;DHT22;34713;50.038;20.000;2022-11-15T03:47:54;8.41;71.96
48898;DHT22;34713;50.038;20.000;2022-11-15T03:50:22;8.44;71.97
48898;DHT22;34713;50.038;20.000;2022-11-15T03:52:50;8.42;71.90
48898;DHT22;34713;50.038;20.000;2022-11-15T03:55:19;8.42;71.83
48898;DHT22;34713;50.038;20.000;2022-11-15T03:57:49;8.40;71.85
48898;DHT22;34713;50.038;20.000;2022-11-15T04:00:15;8.42;71.84
48898;DHT22;34713;50.038;20.000;2022-11-15T04:02:42;8.41;71.87
48898;DHT22;34713;50.038;20.000;2022-11-15T04:05:08;8.38;71.80
48898;DHT22;34713;50.038;20.000;2022-11-15T04:07:34;8.41;71.74
48898;DHT22;34713;50.038;20.000;2022-11-15T04:09:59;8.34;71.64
48898;DHT22;34713;50.038;20.000;2022-11-15T04:12:34;8.30;71.66
48898;DHT22;34713;50.038;20.000;2022-11-15T04:15:04;8.32;71.70
48898;DHT22;34713;50.038;20.000;2022-11-15T04:17:46;8.24;71.67
48898;DHT22;34713;50.038;20.000;2022-11-15T04:20:19;8.20;71.68
48898;DHT22;34713;50.038;20.000;2022-11-15T04:23:09;8.16;71.69
48898;DHT22;34713;50.038;20.000;2022-11-15T04:25:52;8.13;71.77
48898;DHT22;34713;50.038;20.000;2022-11-15T04:28:19;8.09;71.77
48898;DHT22;34713;50.038;20.000;2022-11-15T04:30:45;8.13;71.74
48898;DHT22;34713;50.038;20.000;2022-11-15T04:33:11;8.14;71.69
48898;DHT22;34713;50.038;20.000;2022-11-15T04:35:37;8.14;71.73
48898;DHT22;34713;50.038;20.000;2022-11-15T04:38:06;8.11;71.71
48898;DHT22;34713;50.038;20.000;2022-11-15T04:40:32;8.14;71.71
48898;DHT22;34713;50.038;20.000;2022-11-15T04:42:58;8.14;71.65
48898;DHT22;34713;50.038;20.000;2022-11-15T04:45:23;8.17;71.57
48898;DHT22;34713;50.038;20.000;2022-11-15T04:47:49;8.14;71.53
48898;DHT22;34713;50.038;20.000;2022-11-15T04:50:16;8.13;71.60
48898;DHT22;34713;50.038;20.000;2022-11-15T04:52:44;8.10;71.58
48898;DHT22;34713;50.038;20.000;2022-11-15T04:55:10;8.11;71.56
48898;DHT22;34713;50.038;20.000;2022-11-15T04:57:37;8.11;71.56
48898;DHT22;34713;50.038;20.000;2022-11-15T05:00:09;8.10;71.51
48898;DHT22;34713;50.038;20.000;2022-11-15T05:02:35;8.03;71.45
48898;DHT22;34713;50.038;20.000;2022-11-15T05:05:19;8.00;71.46
48898;DHT22;34713;50.038;20.000;2022-11-15T05:07:45;7.94;71.56
48898;DHT22;34713;50.038;20.000;2022-11-15T05:10:11;7.93;71.64
48898;DHT22;34713;50.038;20.000;2022-11-15T05:12:37;7.94;71.62
48898;DHT22;34713;50.038;20.000;2022-11-15T05:15:04;7.94;71.58
48898;DHT22;34713;50.038;20.000;2022-11-15T05:17:30;7.88;71.52
48898;DHT22;34713;50.038;20.000;2022-11-15T05:19:56;7.85;71.58
48898;DHT22;34713;50.038;20.000;2022-11-15T05:22:22;7.79;71.50
48898;DHT22;34713;50.038;20.000;2022-11-15T05:24:48;7.72;71.54
48898;DHT22;34713;50.038;20.000;2022-11-15T05:27:14;7.65;71.58
48898;DHT22;34713;50.038;20.000;2022-11-15T05:29:39;7.59;71.59
48898;DHT22;34713;50.038;20.000;2022-11-15T05:32:08;7.59;71.60
48898;DHT22;34713;50.038;20.000;2022-11-15T05:34:35;7.55;71.57
48898;DHT22;34713;50.038;20.000;2022-11-15T05:37:01;7.52;71.53
48898;DHT22;34713;50.038;20.000;2022-11-15T05:39:27;7.42;71.53
48898;DHT22;34713;50.038;20.000;2022-11-15T05:42:10;7.34;71.67
48898;DHT22;34713;50.038;20.000;2022-11-15T05:44:39;7.28;71.77
48898;DHT22;34713;50.038;20.000;2022-11-15T05:47:09;7.24;71.80
48898;DHT22;34713;50.038;20.000;2022-11-15T05:49:37;7.21;71.85
48898;DHT22;34713;50.038;20.000;2022-11-15T05:52:07;7.20;71.90
48898;DHT22;34713;50.038;20.000;2022-11-15T05:54:35;7.17;71.88
48898;DHT22;34713;50.038;20.000;2022-11-15T05:57:01;7.11;71.95
48898;DHT22;34713;50.038;20.000;2022-11-15T05:59:29;7.10;72.09
48898;DHT22;34713;50.038;20.000;2022-11-15T06:01:56;7.07;72.05
48898;DHT22;34713;50.038;20.000;2022-11-15T06:04:22;6.99;71.99
48898;DHT22;34713;50.038;20.000;2022-11-15T06:06:48;6.93;72.17
48898;DHT22;34713;50.038;20.000;2022-11-15T06:09:14;6.87;72.29
48898;DHT22;34713;50.038;20.000;2022-11-15T06:11:39;6.87;72.29
48898;DHT22;34713;50.038;20.000;2022-11-15T06:14:05;6.84;72.33
48898;DHT22;34713;50.038;20.000;2022-11-15T06:16:31;6.80;72.30
48898;DHT22;34713;50.038;20.000;2022-11-15T06:18:57;6.82;72.28
48898;DHT22;34713;50.038;20.000;2022-11-15T06:21:24;6.82;72.22
48898;DHT22;34713;50.038;20.000;2022-11-15T06:23:52;6.79;72.26
48898;DHT22;34713;50.038;20.000;2022-11-15T06:26:18;6.83;72.24
48898;DHT22;34713;50.038;20.000;2022-11-15T06:28:44;6.82;72.17
48898;DHT22;34713;50.038;20.000;2022-11-15T06:31:10;6.73;72.05
48898;DHT22;34713;50.038;20.000;2022-11-15T06:33:38;6.65;72.18
48898;DHT22;34713;50.038;20.000;2022-11-15T06:36:11;6.62;72.35
48898;DHT22;34713;50.038;20.000;2022-11-15T06:38:35;6.63;72.44
48898;DHT22;34713;50.038;20.000;2022-11-15T06:41:07;6.65;72.50
48898;DHT22;34713;50.038;20.000;2022-11-15T06:43:34;6.65;72.47
48898;DHT22;34713;50.038;20.000;2022-11-15T06:46:02;6.68;72.57
48898;DHT22;34713;50.038;20.000;2022-11-15T06:48:29;6.71;72.50
48898;DHT22;34713;50.038;20.000;2022-11-15T06:50:58;6.71;72.54
48898;DHT22;34713;50.038;20.000;2022-11-15T06:53:24;6.73;72.55
48898;DHT22;34713;50.038;20.000;2022-11-15T06:55:51;6.79;72.56
48898;DHT22;34713;50.038;20.000;2022-11-15T06:58:17;6.79;72.54
48898;DHT22;34713;50.038;20.000;2022-11-15T07:00:43;6.80;72.61
48898;DHT22;34713;50.038;20.000;2022-11-15T07:03:09;6.86;72.68
48898;DHT22;34713;50.038;20.000;2022-11-15T07:05:35;6.89;72.72
48898;DHT22;34713;50.038;20.000;2022-11-15T07:08:02;6.99;72.66
48898;DHT22;34713;50.038;20.000;2022-11-15T07:10:29;7.03;72.63
48898;DHT22;34713;50.038;20.000;2022-11-15T07:12:55;7.07;72.55
48898;DHT22;34713;50.038;20.000;2022-11-15T07:15:24;7.03;72.50
48898;DHT22;34713;50.038;20.000;2022-11-15T07:17:51;7.06;72.53
48898;DHT22;34713;50.038;20.000;2022-11-15T07:20:17;7.04;72.65
48898;DHT22;34713;50.038;20.000;2022-11-15T07:22:44;7.04;72.71
48898;DHT22;34713;50.038;20.000;2022-11-15T07:25:12;7.06;72.79
48898;DHT22;34713;50.038;20.000;2022-11-15T07:27:38;7.06;72.82
48898;DHT22;34713;50.038;20.000;2022-11-15T07:30:05;7.14;72.86
48898;DHT22;34713;50.038;20.000;2022-11-15T07:32:31;7.14;72.88
48898;DHT22;34713;50.038;20.000;2022-11-15T07:34:58;7.17;72.88
48898;DHT22;34713;50.038;20.000;2022-11-15T07:37:24;7.17;72.83
48898;DHT22;34713;50.038;20.000;2022-11-15T07:39:49;7.20;72.80
48898;DHT22;34713;50.038;20.000;2022-11-15T07:42:15;7.24;72.79
48898;DHT22;34713;50.038;20.000;2022-11-15T07:44:59;7.25;72.79
48898;DHT22;34713;50.038;20.000;2022-11-15T07:47:25;7.30;72.69
48898;DHT22;34713;50.038;20.000;2022-11-15T07:49:53;7.30;72.63
48898;DHT22;34713;50.038;20.000;2022-11-15T07:52:18;7.28;72.54
48898;DHT22;34713;50.038;20.000;2022-11-15T07:54:44;7.30;72.65
48898;DHT22;34713;50.038;20.000;2022-11-15T07:57:10;7.34;72.66
48898;DHT22;34713;50.038;20.000;2022-11-15T07:59:35;7.38;72.62
48898;DHT22;34713;50.038;20.000;2022-11-15T08:02:02;7.44;72.58
48898;DHT22;34713;50.038;20.000;2022-11-15T08:04:28;7.51;72.50
48898;DHT22;34713;50.038;20.000;2022-11-15T08:06:53;7.52;72.36
48898;DHT22;34713;50.038;20.000;2022-11-15T08:09:19;7.61;72.24
48898;DHT22;34713;50.038;20.000;2022-11-15T08:11:45;7.63;72.14
48898;DHT22;34713;50.038;20.000;2022-11-15T08:14:11;7.66;72.03
48898;DHT22;34713;50.038;20.000;2022-11-15T08:16:36;7.67;72.04
48898;DHT22;34713;50.038;20.000;2022-11-15T08:19:02;7.69;72.00
48898;DHT22;34713;50.038;20.000;2022-11-15T08:21:28;7.73;71.98
48898;DHT22;34713;50.038;20.000;2022-11-15T08:23:54;7.81;71.88
48898;DHT22;34713;50.038;20.000;2022-11-15T08:26:19;7.81;71.83
48898;DHT22;34713;50.038;20.000;2022-11-15T08:28:45;7.89;71.82
48898;DHT22;34713;50.038;20.000;2022-11-15T08:31:17;7.92;71.70
48898;DHT22;34713;50.038;20.000;2022-11-15T08:33:44;8.03;71.65
48898;DHT22;34713;50.038;20.000;2022-11-15T08:36:15;8.03;71.57
48898;DHT22;34713;50.038;20.000;2022-11-15T08:38:42;8.07;71.45
48898;DHT22;34713;50.038;20.000;2022-11-15T08:41:25;8.13;71.38
48898;DHT22;34713;50.038;20.000;2022-11-15T08:43:51;8.17;71.35
48898;DHT22;34713;50.038;20.000;2022-11-15T08:46:17;8.21;71.31
48898;DHT22;34713;50.038;20.000;2022-11-15T08:48:43;8.28;71.31
48898;DHT22;34713;50.038;20.000;2022-11-15T08:51:09;8.40;71.27
48898;DHT22;34713;50.038;20.000;2022-11-15T08:53:35;8.48;71.24
48898;DHT22;34713;50.038;20.000;2022-11-15T08:56:01;8.53;71.18
48898;DHT22;34713;50.038;20.000;2022-11-15T08:58:27;8.59;70.97
48898;DHT22;34713;50.038;20.000;2022-11-15T09:00:53;8.62;70.86
48898;DHT22;34713;50.038;20.000;2022-11-15T09:03:19;8.59;70.80
48898;DHT22;34713;50.038;20.000;2022-11-15T09:05:44;8.62;70.80
48898;DHT22;34713;50.038;20.000;2022-11-15T09:08:10;8.61;70.79
48898;DHT22;34713;50.038;20.000;2022-11-15T09:10:38;8.63;70.76
48898;DHT22;34713;50.038;20.000;2022-11-15T09:13:04;8.69;70.73
48898;DHT22;34713;50.038;20.000;2022-11-15T09:15:29;8.75;70.62
48898;DHT22;34713;50.038;20.000;2022-11-15T09:17:58;8.76;70.47
48898;DHT22;34713;50.038;20.000;2022-11-15T09:20:24;8.76;70.46
48898;DHT22;34713;50.038;20.000;2022-11-15T09:22:50;8.85;70.40
48898;DHT22;34713;50.038;20.000;2022-11-15T09:25:16;8.86;70.36
48898;DHT22;34713;50.038;20.000;2022-11-15T09:27:42;8.92;70.31
48898;DHT22;34713;50.038;20.000;2022-11-15T09:30:08;8.99;70.13
48898;DHT22;34713;50.038;20.000;2022-11-15T09:32:34;9.07;70.05
48898;DHT22;34713;50.038;20.000;2022-11-15T09:35:00;9.14;70.00
48898;DHT22;34713;50.038;20.000;2022-11-15T09:37:25;9.20;69.95
48898;DHT22;34713;50.038;20.000;2022-11-15T09:39:51;9.29;69.92
48898;DHT22;34713;50.038;20.000;2022-11-15T09:56:35;9.61;69.38
48898;DHT22;34713;50.038;20.000;2022-11-15T10:01:52;9.76;69.18
48898;DHT22;34713;50.038;20.000;2022-11-15T10:04:16;9.82;69.05
48898;DHT22;34713;50.038;20.000;2022-11-15T10:06:51;9.88;68.90
48898;DHT22;34713;50.038;20.000;2022-11-15T10:09:22;9.96;68.92
48898;DHT22;34713;50.038;20.000;2022-11-15T10:11:47;10.00;68.86
48898;DHT22;34713;50.038;20.000;2022-11-15T10:16:55;10.14;68.77
48898;DHT22;34713;50.038;20.000;2022-11-15T10:22:27;10.26;68.70
48898;DHT22;34713;50.038;20.000;2022-11-15T10:25:19;10.33;68.53
48898;DHT22;34713;50.038;20.000;2022-11-15T10:30:38;10.31;68.35
48898;DHT22;34713;50.038;20.000;2022-11-15T10:33:32;10.30;68.32
48898;DHT22;34713;50.038;20.000;2022-11-15T10:36:20;10.30;68.32
48898;DHT22;34713;50.038;20.000;2022-11-15T10:38:54;10.30;68.30
48898;DHT22;34713;50.038;20.000;2022-11-15T10:41:31;10.33;68.28
48898;DHT22;34713;50.038;20.000;2022-11-15T10:49:28;10.36;68.32
48898;DHT22;34713;50.038;20.000;2022-11-15T10:52:15;10.34;68.30
48898;DHT22;34713;50.038;20.000;2022-11-15T10:54:51;10.36;68.40
48898;DHT22;34713;50.038;20.000;2022-11-15T10:57:18;10.40;68.43
48898;DHT22;34713;50.038;20.000;2022-11-15T10:59:54;10.44;68.44
48898;DHT22;34713;50.038;20.000;2022-11-15T11:02:36;10.48;68.48
48898;DHT22;34713;50.038;20.000;2022-11-15T11:05:06;10.48;68.46
48898;DHT22;34713;50.038;20.000;2022-11-15T11:07:35;10.56;68.47
48898;DHT22;34713;50.038;20.000;2022-11-15T11:10:18;10.57;68.49
48898;DHT22;34713;50.038;20.000;2022-11-15T11:12:44;10.61;68.46
48898;DHT22;34713;50.038;20.000;2022-11-15T11:15:14;10.65;68.47
48898;DHT22;34713;50.038;20.000;2022-11-15T11:18:06;10.71;68.44
48898;DHT22;34713;50.038;20.000;2022-11-15T11:20:45;10.77;68.47
48898;DHT22;34713;50.038;20.000;2022-11-15T11:23:33;10.82;68.43
48898;DHT22;34713;50.038;20.000;2022-11-15T11:25:57;10.85;68.41
48898;DHT22;34713;50.038;20.000;2022-11-15T11:28:54;10.92;68.37
48898;DHT22;34713;50.038;20.000;2022-11-15T11:34:29;11.02;68.30
48898;DHT22;34713;50.038;20.000;2022-11-15T11:37:09;11.06;68.19
48898;DHT22;34713;50.038;20.000;2022-11-15T11:46:05;11.27;68.04
48898;DHT22;34713;50.038;20.000;2022-11-15T11:48:41;11.33;67.96
48898;DHT22;34713;50.038;20.000;2022-11-15T11:51:18;11.40;67.85
48898;DHT22;34713;50.038;20.000;2022-11-15T11:56:53;11.49;67.68
48898;DHT22;34713;50.038;20.000;2022-11-15T12:02:12;11.61;67.58
48898;DHT22;34713;50.038;20.000;2022-11-15T12:04:40;11.65;67.58
48898;DHT22;34713;50.038;20.000;2022-11-15T12:07:24;11.74;67.51
48898;DHT22;34713;50.038;20.000;2022-11-15T12:13:03;11.82;67.35
48898;DHT22;34713;50.038;20.000;2022-11-15T12:15:27;11.85;67.28
48898;DHT22;34713;50.038;20.000;2022-11-15T12:17:55;11.86;67.22
48898;DHT22;34713;50.038;20.000;2022-11-15T12:20:27;11.88;67.17
48898;DHT22;34713;50.038;20.000;2022-11-15T12:23:13;11.92;67.10
48898;DHT22;34713;50.038;20.000;2022-11-15T12:26:04;11.95;67.06
48898;DHT22;34713;50.038;20.000;2022-11-15T12:28:38;11.98;67.05
48898;DHT22;34713;50.038;20.000;2022-11-15T12:31:13;11.99;67.01
48898;DHT22;34713;50.038;20.000;2022-11-15T12:33:45;12.02;66.97
48898;DHT22;34713;50.038;20.000;2022-11-15T12:36:35;12.05;66.95
48898;DHT22;34713;50.038;20.000;2022-11-15T12:39:13;12.09;66.92
48898;DHT22;34713;50.038;20.000;2022-11-15T12:41:43;12.09;66.85
48898;DHT22;34713;50.038;20.000;2022-11-15T12:47:22;12.12;66.74
48898;DHT22;34713;50.038;20.000;2022-11-15T12:52:09;12.16;66.58
48898;DHT22;34713;50.038;20.000;2022-11-15T12:54:54;12.16;66.45
48898;DHT22;34713;50.038;20.000;2022-11-15T12:57:28;12.13;66.42
48898;DHT22;34713;50.038;20.000;2022-11-15T13:02:44;12.16;66.32
48898;DHT22;34713;50.038;20.000;2022-11-15T13:07:55;12.19;66.25
48898;DHT22;34713;50.038;20.000;2022-11-15T13:10:33;12.23;66.22
48898;DHT22;34713;50.038;20.000;2022-11-15T13:13:08;12.26;66.18
48898;DHT22;34713;50.038;20.000;2022-11-15T13:15:56;12.32;66.14
48898;DHT22;34713;50.038;20.000;2022-11-15T13:18:32;12.35;66.16
48898;DHT22;34713;50.038;20.000;2022-11-15T13:20:58;12.42;66.10
48898;DHT22;34713;50.038;20.000;2022-11-15T13:23:24;12.44;66.06
48898;DHT22;34713;50.038;20.000;2022-11-15T13:26:14;12.53;66.03
48898;DHT22;34713;50.038;20.000;2022-11-15T13:28:45;12.57;65.90
48898;DHT22;34713;50.038;20.000;2022-11-15T13:31:37;12.62;65.79
48898;DHT22;34713;50.038;20.000;2022-11-15T13:34:29;12.68;65.77
48898;DHT22;34713;50.038;20.000;2022-11-15T13:36:56;12.71;65.66
48898;DHT22;34713;50.038;20.000;2022-11-15T13:39:34;12.74;65.55
48898;DHT22;34713;50.038;20.000;2022-11-15T13:42:02;12.77;65.50
48898;DHT22;34713;50.038;20.000;2022-11-15T13:44:32;12.80;65.42
48898;DHT22;34713;50.038;20.000;2022-11-15T13:47:18;12.81;65.41
48898;DHT22;34713;50.038;20.000;2022-11-15T13:49:44;12.85;65.31
48898;DHT22;34713;50.038;20.000;2022-11-15T13:52:13;12.87;65.25
48898;DHT22;34713;50.038;20.000;2022-11-15T13:54:57;12.90;65.22
48898;DHT22;34713;50.038;20.000;2022-11-15T13:57:26;12.90;65.20
48898;DHT22;34713;50.038;20.000;2022-11-15T13:59:57;12.90;65.11
48898;DHT22;34713;50.038;20.000;2022-11-15T14:02:32;12.94;65.11
48898;DHT22;34713;50.038;20.000;2022-11-15T14:05:14;12.95;65.04
48898;DHT22;34713;50.038;20.000;2022-11-15T14:07:39;12.95;64.97
48898;DHT22;34713;50.038;20.000;2022-11-15T14:10:32;12.97;64.88
48898;DHT22;34713;50.038;20.000;2022-11-15T14:13:00;13.00;64.86
48898;DHT22;34713;50.038;20.000;2022-11-15T14:15:36;13.01;64.88
48898;DHT22;34713;50.038;20.000;2022-11-15T14:18:03;13.01;64.82
48898;DHT22;34713;50.038;20.000;2022-11-15T14:20:34;13.02;64.77
48898;DHT22;34713;50.038;20.000;2022-11-15T14:23:19;13.01;64.70
48898;DHT22;34713;50.038;20.000;2022-11-15T14:25:59;13.00;64.70
48898;DHT22;34713;50.038;20.000;2022-11-15T14:30:57;13.00;64.57
48898;DHT22;34713;50.038;20.000;2022-11-15T14:33:31;13.00;64.49
48898;DHT22;34713;50.038;20.000;2022-11-15T14:36:17;13.01;64.49
48898;DHT22;34713;50.038;20.000;2022-11-15T14:38:44;13.00;64.46
48898;DHT22;34713;50.038;20.000;2022-11-15T14:41:21;13.01;64.38
48898;DHT22;34713;50.038;20.000;2022-11-15T14:43:47;13.00;64.37
48898;DHT22;34713;50.038;20.000;2022-11-15T14:46:13;13.00;64.37
48898;DHT22;34713;50.038;20.000;2022-11-15T14:48:39;13.00;64.43
48898;DHT22;34713;50.038;20.000;2022-11-15T14:51:14;12.98;64.50
48898;DHT22;34713;50.038;20.000;2022-11-15T14:53:41;12.98;64.52
48898;DHT22;34713;50.038;20.000;2022-11-15T14:56:08;12.94;64.52
48898;DHT22;34713;50.038;20.000;2022-11-15T14:58:34;12.94;64.43
48898;DHT22;34713;50.038;20.000;2022-11-15T15:01:05;12.97;64.50
48898;DHT22;34713;50.038;20.000;2022-11-15T15:03:30;12.95;64.53
48898;DHT22;34713;50.038;20.000;2022-11-15T15:05:56;12.94;64.57
48898;DHT22;34713;50.038;20.000;2022-11-15T15:08:21;12.92;64.56
48898;DHT22;34713;50.038;20.000;2022-11-15T15:10:47;12.95;64.54
48898;DHT22;34713;50.038;20.000;2022-11-15T15:13:23;12.94;64.55
48898;DHT22;34713;50.038;20.000;2022-11-15T15:15:50;12.94;64.50
48898;DHT22;34713;50.038;20.000;2022-11-15T15:18:17;12.94;64.42
48898;DHT22;34713;50.038;20.000;2022-11-15T15:20:45;12.92;64.46
48898;DHT22;34713;50.038;20.000;2022-11-15T15:23:20;12.91;64.53
48898;DHT22;34713;50.038;20.000;2022-11-15T15:25:46;12.91;64.58
48898;DHT22;34713;50.038;20.000;2022-11-15T15:28:14;12.88;64.53
48898;DHT22;34713;50.038;20.000;2022-11-15T15:30:41;12.90;64.53
48898;DHT22;34713;50.038;20.000;2022-11-15T15:33:07;12.87;64.55
48898;DHT22;34713;50.038;20.000;2022-11-15T15:35:34;12.87;64.64
48898;DHT22;34713;50.038;20.000;2022-11-15T15:38:00;12.85;64.56
48898;DHT22;34713;50.038;20.000;2022-11-15T15:40:29;12.87;64.67
48898;DHT22;34713;50.038;20.000;2022-11-15T15:42:56;12.87;64.74
48898;DHT22;34713;50.038;20.000;2022-11-15T15:45:22;12.87;64.73
48898;DHT22;34713;50.038;20.000;2022-11-15T15:47:47;12.85;64.68
48898;DHT22;34713;50.038;20.000;2022-11-15T15:50:34;12.87;64.66
48898;DHT22;34713;50.038;20.000;2022-11-15T15:53:01;12.85;64.51
48898;DHT22;34713;50.038;20.000;2022-11-15T15:55:28;12.78;64.87
48898;DHT22;34713;50.038;20.000;2022-11-15T15:57:54;12.78;64.85
48898;DHT22;34713;50.038;20.000;2022-11-15T16:00:21;12.77;64.97
48898;DHT22;34713;50.038;20.000;2022-11-15T16:02:49;12.71;65.00
48898;DHT22;34713;50.038;20.000;2022-11-15T16:05:15;12.68;65.05
48898;DHT22;34713;50.038;20.000;2022-11-15T16:07:42;12.64;65.17
48898;DHT22;34713;50.038;20.000;2022-11-15T16:10:28;12.57;65.22
48898;DHT22;34713;50.038;20.000;2022-11-15T16:12:56;12.50;65.35
48898;DHT22;34713;50.038;20.000;2022-11-15T16:15:24;12.46;65.43
48898;DHT22;34713;50.038;20.000;2022-11-15T16:17:56;12.44;65.57
48898;DHT22;34713;50.038;20.000;2022-11-15T16:20:42;12.42;65.55
48898;DHT22;34713;50.038;20.000;2022-11-15T16:23:14;12.42;65.64
48898;DHT22;34713;50.038;20.000;2022-11-15T16:25:54;12.42;65.64
48898;DHT22;34713;50.038;20.000;2022-11-15T16:28:30;12.39;65.66
48898;DHT22;34713;50.038;20.000;2022-11-15T16:31:07;12.40;65.76
48898;DHT22;34713;50.038;20.000;2022-11-15T16:33:32;12.39;65.78
48898;DHT22;34713;50.038;20.000;2022-11-15T16:35:58;12.43;65.78
48898;DHT22;34713;50.038;20.000;2022-11-15T16:38:24;12.43;65.74
48898;DHT22;34713;50.038;20.000;2022-11-15T16:40:50;12.46;65.75
48898;DHT22;34713;50.038;20.000;2022-11-15T16:43:15;12.47;65.78
48898;DHT22;34713;50.038;20.000;2022-11-15T16:45:41;12.47;65.71
48898;DHT22;34713;50.038;20.000;2022-11-15T16:48:23;12.49;65.72
48898;DHT22;34713;50.038;20.000;2022-11-15T16:50:50;12.49;65.71
48898;DHT22;34713;50.038;20.000;2022-11-15T16:53:16;12.50;65.68
48898;DHT22;34713;50.038;20.000;2022-11-15T16:55:41;12.50;65.66
48898;DHT22;34713;50.038;20.000;2022-11-15T16:58:08;12.50;65.67
48898;DHT22;34713;50.038;20.000;2022-11-15T17:00:35;12.53;65.73
48898;DHT22;34713;50.038;20.000;2022-11-15T17:03:00;12.53;65.71
48898;DHT22;34713;50.038;20.000;2022-11-15T17:05:28;12.54;65.72
48898;DHT22;34713;50.038;20.000;2022-11-15T17:07:55;12.54;65.73
48898;DHT22;34713;50.038;20.000;2022-11-15T17:10:24;12.54;65.72
48898;DHT22;34713;50.038;20.000;2022-11-15T17:12:51;12.56;65.70
48898;DHT22;34713;50.038;20.000;2022-11-15T17:15:17;12.57;65.68